Quail, Texas
Current Conditions -  °F | °C
As of 2:53 PM on Friday 24 Oct 2014 (Local Time) from KCDS Reporting Station
Clear Clear  
Wind Chill: 89°   Ceiling: Unl
Heat Index: 89°   Visibility: 10mi
Dew Point: 56°   Wind: 12mph
Humidity: 32%   Direction: 220°SW
Pressure: 30.05"   Gusts: NA
Location:  34.91°N, 100.4°W
Report Text: KCDS 241953Z AUTO 22010KT 10SM CLR 32/13 A3005 RMK AO2 SLP153 T03170133
Loading
Personal Weather Stations






























Interactive Weather Map New forecast layout! Learn more

10-Day Weather Forecast

Advertisements
Track Severe Weather on mobile